createdAt,value
2023-03-04T00:02:45.154Z,5.90
2023-03-04T00:08:47.562Z,5.90
2023-03-04T00:14:49.698Z,5.80
2023-03-04T00:20:52.002Z,5.90
2023-03-04T00:26:54.197Z,5.90
2023-03-04T00:32:56.460Z,5.90
2023-03-04T00:38:59.146Z,5.90
2023-03-04T00:45:01.295Z,5.90
2023-03-04T00:51:03.503Z,6.00
2023-03-04T00:57:05.630Z,6.00
2023-03-04T01:03:07.856Z,6.00
2023-03-04T01:09:10.284Z,6.00
2023-03-04T01:15:13.925Z,6.00
2023-03-04T01:21:16.150Z,5.80
2023-03-04T01:27:18.296Z,5.70
2023-03-04T01:33:20.450Z,5.60
2023-03-04T01:39:22.634Z,5.70
2023-03-04T01:45:26.738Z,5.70
2023-03-04T01:51:29.037Z,5.70
2023-03-04T01:57:35.857Z,5.60
2023-03-04T02:03:39.130Z,5.60
2023-03-04T02:09:41.507Z,5.60
2023-03-04T02:15:45.471Z,5.80
2023-03-04T02:21:47.591Z,5.80
2023-03-04T02:27:49.754Z,5.90
2023-03-04T02:33:54.268Z,5.90
2023-03-04T02:39:56.648Z,5.90
2023-03-04T02:45:58.950Z,6.00
2023-03-04T02:52:15.166Z,6.00
2023-03-04T02:58:17.658Z,6.00
2023-03-04T03:04:21.151Z,6.10
2023-03-04T03:10:25.108Z,6.10
2023-03-04T03:16:27.744Z,6.10
2023-03-04T03:22:30.399Z,6.10
2023-03-04T03:28:32.844Z,6.10
2023-03-04T03:34:35.775Z,6.10
2023-03-04T03:40:38.180Z,6.10
2023-03-04T03:46:40.664Z,6.00
2023-03-04T03:52:42.848Z,6.00
2023-03-04T03:58:45.213Z,5.90
2023-03-04T04:04:47.611Z,5.90
2023-03-04T04:10:49.707Z,6.00
2023-03-04T04:16:51.892Z,6.00
2023-03-04T04:22:54.133Z,6.00
2023-03-04T04:28:56.275Z,6.00
2023-03-04T04:34:58.401Z,6.00
2023-03-04T04:41:01.055Z,6.10
2023-03-04T04:47:03.107Z,6.10
2023-03-04T04:53:05.356Z,6.10
2023-03-04T04:59:08.865Z,6.00
2023-03-04T05:05:11.156Z,5.90
2023-03-04T05:11:13.318Z,5.90
2023-03-04T05:17:15.360Z,5.90
2023-03-04T05:23:17.733Z,5.80
2023-03-04T05:29:20.259Z,5.80
2023-03-04T05:35:22.382Z,5.80
2023-03-04T05:41:24.656Z,5.90
2023-03-04T05:47:26.910Z,5.90
2023-03-04T05:53:29.585Z,5.80
2023-03-04T05:59:31.854Z,5.90
2023-03-04T06:05:34.295Z,5.90
2023-03-04T06:11:36.586Z,6.20
2023-03-04T06:17:42.157Z,6.50
2023-03-04T06:23:45.510Z,7.10
2023-03-04T06:29:48.044Z,9.80
2023-03-04T06:35:54.625Z,9.00
2023-03-04T06:41:56.949Z,10.70
2023-03-04T06:47:59.400Z,13.60
2023-03-04T06:54:01.753Z,15.10
2023-03-04T07:00:04.663Z,12.60
2023-03-04T07:06:07.460Z,11.70
2023-03-04T07:12:09.927Z,11.60
2023-03-04T07:18:12.238Z,13.20
2023-03-04T07:24:14.754Z,13.10
2023-03-04T07:30:17.447Z,12.80
2023-03-04T07:36:20.446Z,14.20
2023-03-04T07:42:23.330Z,13.00
2023-03-04T07:48:33.524Z,12.70
2023-03-04T07:54:36.225Z,15.00
2023-03-04T08:00:38.242Z,18.90
2023-03-04T08:06:42.075Z,21.60
2023-03-04T08:12:44.178Z,21.80
2023-03-04T08:18:48.718Z,18.60
2023-03-04T08:24:50.786Z,15.20
2023-03-04T08:30:54.863Z,13.50
2023-03-04T08:36:57.164Z,12.50
2023-03-04T08:42:59.438Z,11.20
2023-03-04T08:49:01.644Z,10.20
2023-03-04T08:55:04.218Z,9.40
2023-03-04T09:01:09.423Z,9.00
2023-03-04T09:07:11.800Z,9.10
2023-03-04T09:13:17.884Z,9.00
2023-03-04T09:19:20.521Z,9.10
2023-03-04T09:25:22.984Z,9.10
2023-03-04T09:31:26.611Z,8.90
2023-03-04T09:37:28.755Z,9.60
2023-03-04T09:43:32.825Z,9.70
2023-03-04T09:49:39.111Z,9.90
2023-03-04T09:55:44.407Z,10.40
2023-03-04T10:01:55.136Z,11.90
2023-03-04T10:08:01.071Z,14.30
2023-03-04T10:14:38.761Z,14.30
2023-03-04T10:20:59.892Z,13.70
2023-03-04T10:27:07.480Z,14.30
2023-03-04T10:33:31.439Z,13.50
2023-03-04T10:39:40.045Z,13.10
2023-03-04T10:45:42.687Z,13.60
2023-03-04T10:51:51.060Z,14.50
2023-03-04T10:57:58.029Z,14.90
2023-03-04T11:04:00.322Z,15.10
2023-03-04T11:10:20.220Z,16.40
2023-03-04T11:16:31.436Z,18.00
2023-03-04T11:22:33.930Z,19.30
2023-03-04T11:28:47.713Z,21.00
2023-03-04T11:35:08.673Z,21.20
2023-03-04T11:41:17.197Z,22.20
2023-03-04T11:47:46.651Z,21.40
2023-03-04T11:54:36.190Z,20.80
2023-03-04T12:00:44.250Z,20.90
2023-03-04T12:07:09.366Z,21.70
2023-03-04T12:13:36.595Z,21.30
2023-03-04T12:20:09.216Z,18.90
2023-03-04T12:26:43.843Z,19.00
2023-03-04T12:32:57.702Z,17.90
2023-03-04T12:39:08.562Z,16.20
2023-03-04T12:45:19.626Z,15.20
2023-03-04T12:51:35.360Z,17.20
2023-03-04T12:57:38.565Z,15.70
2023-03-04T13:03:45.400Z,16.40
2023-03-04T13:09:57.739Z,16.10
2023-03-04T13:16:27.325Z,15.30
2023-03-04T13:22:41.522Z,15.20
2023-03-04T13:28:43.910Z,14.10
2023-03-04T13:34:54.842Z,14.10
2023-03-04T13:41:31.546Z,13.80
2023-03-04T13:47:45.659Z,14.30
2023-03-04T13:53:56.581Z,14.70
2023-03-04T13:59:59.014Z,13.30
2023-03-04T14:06:10.355Z,13.10
2023-03-04T14:12:19.774Z,12.80
2023-03-04T14:18:25.164Z,12.60
2023-03-04T14:24:27.518Z,12.30
2023-03-04T14:30:42.103Z,11.90
2023-03-04T14:36:45.793Z,11.70
2023-03-04T14:42:49.643Z,11.50
2023-03-04T14:48:54.049Z,11.40
2023-03-04T14:55:15.216Z,11.30
2023-03-04T15:01:21.776Z,11.10
2023-03-04T15:07:36.263Z,10.90
2023-03-04T15:13:50.349Z,10.90
2023-03-04T15:20:17.553Z,10.80
2023-03-04T15:26:19.846Z,10.60
2023-03-04T15:32:26.140Z,10.50
2023-03-04T15:38:29.312Z,10.40
2023-03-04T15:44:32.228Z,10.30
2023-03-04T15:50:36.333Z,10.20
2023-03-04T15:56:39.617Z,10.10
2023-03-04T16:02:42.806Z,10.00
2023-03-04T16:08:46.157Z,9.90
2023-03-04T16:14:50.190Z,9.90
2023-03-04T16:20:52.579Z,9.90
2023-03-04T16:26:54.924Z,9.80
2023-03-04T16:32:57.531Z,9.70
2023-03-04T16:39:03.469Z,9.60
2023-03-04T16:45:06.564Z,9.60
2023-03-04T16:51:17.317Z,9.50
2023-03-04T16:57:20.170Z,9.40
2023-03-04T17:03:22.380Z,9.40
2023-03-04T17:09:24.493Z,9.40
2023-03-04T17:15:26.791Z,9.30
2023-03-04T17:21:28.944Z,9.20
2023-03-04T17:27:31.116Z,9.20
2023-03-04T17:33:33.443Z,9.20
2023-03-04T17:39:35.631Z,9.10
2023-03-04T17:45:42.180Z,9.00
2023-03-04T17:51:44.780Z,8.90
2023-03-04T17:57:47.234Z,8.80
2023-03-04T18:03:49.499Z,8.70
2023-03-04T18:09:51.891Z,8.60
2023-03-04T18:15:54.239Z,8.60
2023-03-04T18:21:56.891Z,8.50
2023-03-04T18:27:59.451Z,8.40
2023-03-04T18:34:02.286Z,8.30
2023-03-04T18:40:05.175Z,8.30
2023-03-04T18:46:09.236Z,8.20
2023-03-04T18:52:11.796Z,8.20
2023-03-04T18:58:14.178Z,8.10
2023-03-04T19:04:18.396Z,8.00
2023-03-04T19:10:21.448Z,8.00
2023-03-04T19:16:24.186Z,7.90
2023-03-04T19:22:26.183Z,7.70
2023-03-04T19:28:28.209Z,7.60
2023-03-04T19:34:30.221Z,7.60
2023-03-04T19:40:34.657Z,7.60
2023-03-04T19:46:36.853Z,7.60
2023-03-04T19:52:40.431Z,7.70
2023-03-04T19:58:42.830Z,7.70
2023-03-04T20:04:45.056Z,7.70
2023-03-04T20:10:47.273Z,7.50
2023-03-04T20:16:49.605Z,7.50
2023-03-04T20:22:51.924Z,7.40
2023-03-04T20:28:54.492Z,7.40
2023-03-04T20:34:58.386Z,7.40
2023-03-04T20:41:00.630Z,7.40
2023-03-04T20:47:03.749Z,7.50
2023-03-04T20:53:05.984Z,7.50
2023-03-04T20:59:10.616Z,7.60
2023-03-04T21:05:13.348Z,7.60
2023-03-04T21:11:17.067Z,7.40
2023-03-04T21:17:19.288Z,7.20
2023-03-04T21:23:22.000Z,6.90
2023-03-04T21:29:25.791Z,6.70
2023-03-04T21:35:27.999Z,6.50
2023-03-04T21:41:31.325Z,6.40
2023-03-04T21:47:34.958Z,6.30
2023-03-04T21:53:37.619Z,6.20
2023-03-04T21:59:39.784Z,6.20
2023-03-04T22:05:45.396Z,6.10
2023-03-04T22:11:47.608Z,6.00
2023-03-04T22:17:50.019Z,5.90
2023-03-04T22:23:52.282Z,5.90
2023-03-04T22:29:56.026Z,5.90
2023-03-04T22:35:58.104Z,5.90
2023-03-04T22:42:00.320Z,5.90
2023-03-04T22:48:02.784Z,5.80
2023-03-04T22:54:05.146Z,5.70
2023-03-04T23:00:15.859Z,5.70
2023-03-04T23:06:20.950Z,5.60
2023-03-04T23:12:23.536Z,5.50
2023-03-04T23:18:25.776Z,5.40
2023-03-04T23:24:28.133Z,5.30
2023-03-04T23:30:30.550Z,5.30
2023-03-04T23:36:35.587Z,5.20
2023-03-04T23:42:39.224Z,5.20
2023-03-04T23:48:46.621Z,5.00
2023-03-04T23:54:48.918Z,5.00
